РПИ Самара

 

Самарский центр обслуживания воздушного движения (ОВД) является структурным подразделением VATRUS.

В зону ответственности центра в сети VATSIM входит воздушное пространство над территориями республик Татарстан, Марий Эл, Башкортостан, Мордовия, а также Оренбургской, Самарской, Саратовской, Ульяновской и Пензенской областями. Обслуживаемая площадь, в воздушном пространстве которой решаются задачи УВД, составляет более 700 тысяч км² над территорией Поволжского федерального округа.

В пространстве РПИ находятся более 180 аэродромов и посадочных площадок различных ведомств, в том числе 8 международных аэропортов. Также на территории района находится около десятка учебных аэродромов летных училищ России - УИГА, БЛУГА, СПбГУГА и ККЛУГА.

 

Средства связи ОВД / ATC Units:

RU_WRC_FSS - Москва-Радар - UMMV, UUWV, UWWW - 135.320

UWWW_CTR - Самара-Контроль - РЦ Самара 132.900

UWWW_1_CTR - Самара-Контроль - Сектор 1 - 132.900

UWWW_2_CTR - Самара-Контроль - Сектор 2 (Ульяновск) - 132.300

UWWW_3_CTR - Самара-Контроль - Сектор 3 - 134.700

UWWW_4_CTR - Самара-Контроль - Сектор 4 (Саратов) - 135.900

UWWW_5_CTR - Самара-Контроль - Сектор 5 (Пенза) - 134.300

UWWW_6_CTR - Самара-Контроль - Сектор 6 (Уфа-Север) - 126.900

UWWW_7_CTR - Самара-Контроль - Сектор 7 (Уфа-Юг) - 132.500

UWWW_8_CTR - Самара-Контроль - Сектор 8 (Оренбург) - 132.000

UWWW_9_CTR - Самара-Контроль - Сектор 9 (Казань-Север) - 133.600

UWWW_10_CTR - Самара-Контроль - Сектор 10 (Казань-Юг) - 133.100

 

Samara FIR

Samara Air trafic control center is a structural part of VATRUS Division.

FIR area of responsibility in VATSIM includes airspace over Tatarstan, Maryy El, Mordovia republics, as well as Orenburg, Samara, Saratov, Ulyanovsk and Penza regions.

Руководитель РПИ

Ivan Skatov*

Инструкторы РПИ
Ivan Chokenyuk * (Controller)
Ivan Skatov (Instructor)
Sergei Stetsko * (Controller)
Входит в состав
ЗЦ Москва

Диспетчеры РПИ

Диспетчер Рейтинг Допуски *
Alexey Dobronravov Instructor UWWW_CTR
Artem Smorchkov Controller UWWW_CTR
Dmitry Markus Instructor UWWW_CTR
Ivan Skatov Instructor UWWW_CTR
Maxim Tsygankov Instructor UWWW_CTR
Sergei Stetsko Controller UWWW_CTR
Yulia Goryacheva Instructor UWWW_CTR
Yury Koryagin Instructor UWWW_CTR
Arthur Kurbangaleev Student UWWW_GND
Denis Rybalkin Student UWWW_GND
Kirill Shabunin Senior Controller UWKD_APP(UWKD+UWKE+UWKJ+UWKB+UWKS)
Pavel Yashin Student 2 UWKD_GND
Sergey Soshnikov Student UWWW_GND
Vsevolod Skryabin Student 2 UWOO_GND!!!

Аэропорты РПИ

ICAO Город Название Погода
UWWW Самара Курумоч UWWW 161930Z 30004MPS 9999 SCT033 M06/M10 Q1002 R33/410156 NOSIG RMK QFE741/0988
UWUU Уфа Уфа UWUU 161930Z 23006MPS 4500 -SN OVC020 M11/M13 Q0997 R14R/450542 TEMPO 1000 SN BKN007
UWKB Бугульма Бугульма
UWKJ Йошкар-Ола Йошкар-Ола
UWKD Казань Казань UWKD 161930Z 27005MPS 9999 BKN045 M07/M10 Q1000 R29/390045 NOSIG RMK QFE739/0986
UWKE Нижнекамск Бегишево UWKE 161930Z 27006MPS 9000 -SN DRSN OVC046 M08/M09 Q0997 R21/420538 NOSIG RMK QFE731/0975
UWOO Оренбург Оренбург UWOO 161930Z 24003MPS 9000 -SN OVC036 M07/M09 Q1003 R26/850336 NOSIG RMK QFE742/0989
UWOR Орск Орск UWOR 161900Z 24011MPS 9000 BLSN NSC M07/M10 Q1001 R25/850240 NOSIG RMK QFE728/0970
UWPP Пенза Пенза
UWPS Саранск Саранск UWPS 161930Z 25005MPS 9999 SCT033 M09/M11 Q1005 R20/492038 NOSIG RMK QFE735
UWSG Саратов Гагарин UWSG 161930Z 29005MPS CAVOK M07/M09 Q1008 R26/820265 NOSIG RMK QFE753/1005
UWSS Саратов Саратов
UWLL Ульяновск-УЛК Ульяновск UWLL 161930Z 27005MPS 9999 BKN041CB M06/M09 Q1003 R20/850242 NOSIG RMK QFE742/0990
UWLW Ульяновск-УЛС Восточный UWLW 161900Z 28005MPS 9999 -SN OVC045 M06/M09 Q1002 R02/490740 NOSIG RMK QFE745
UWKS Чебоксары Чебоксары UWKS 161930Z 30005MPS 9999 BKN020 M06/M09 Q1000 R24/490337 NOSIG RMK QFE736